Time;durP1;ratioP1;P1;durP2;ratioP2;P2;SDS_P1;SDS_P2;PMS_P1;PMS_P2;Temp;Humidity;BMP_temperature;BMP_pressure;BME280_temperature;BME280_humidity;BME280_pressure;Samples;Min_cycle;Max_cycle;Signal;HPM_P1;HPM_P2
2022/06/27 00:00:15;;;;;;;3.60;3.30;;;19.40;99.90;;;;;;5080185;23;20508;-96
2022/06/27 00:02:41;;;;;;;3.70;3.47;;;19.50;99.90;;;;;;4999879;23;20527;-96
2022/06/27 00:05:11;;;;;;;3.03;2.93;;;19.40;99.90;;;;;;4980624;28;20433;-96
2022/06/27 00:07:49;;;;;;;3.00;2.80;;;19.60;99.90;;;;;;5183175;23;20238;-95
2022/06/27 00:10:21;;;;;;;2.90;2.80;;;20.10;99.90;;;;;;4963018;28;20551;-96
2022/06/27 00:13:03;;;;;;;2.13;2.03;;;19.70;99.90;;;;;;4969157;28;20449;-96
2022/06/27 00:15:41;;;;;;;4.43;2.50;;;20.20;99.90;;;;;;4961603;28;20454;-96
2022/06/27 00:18:10;;;;;;;3.37;2.47;;;19.90;99.90;;;;;;4969901;28;20485;-96
2022/06/27 00:33:31;;;;;;;1.97;1.30;;;18.80;99.90;;;;;;4989673;28;20489;-96
2022/06/27 00:35:58;;;;;;;1.73;1.33;;;18.90;99.90;;;;;;4971751;28;20457;-96
2022/06/27 00:38:29;;;;;;;2.33;1.67;;;19.60;99.90;;;;;;4988994;28;20490;-96
2022/06/27 00:41:05;;;;;;;1.77;1.47;;;19.30;99.90;;;;;;4997518;28;20483;-96
2022/06/27 00:46:14;;;;;;;4.17;1.60;;;18.30;99.90;;;;;;5045954;22;20519;-95
2022/06/27 00:49:02;;;;;;;3.00;2.20;;;19.00;99.90;;;;;;5031302;28;20431;-96
2022/06/27 01:04:29;;;;;;;3.67;2.50;;;17.60;99.90;;;;;;4959694;28;20506;-95
2022/06/27 01:06:58;;;;;;;3.33;2.17;;;17.40;99.90;;;;;;4944553;28;20445;-95
2022/06/27 01:09:27;;;;;;;3.83;2.00;;;17.80;99.90;;;;;;4971371;28;20482;-96
2022/06/27 01:12:08;;;;;;;2.63;2.00;;;17.30;99.90;;;;;;5156774;23;20451;-95
2022/06/27 01:14:34;;;;;;;2.33;2.10;;;17.10;99.90;;;;;;4940008;28;20202;-95
2022/06/27 01:17:00;;;;;;;2.40;1.83;;;17.40;99.90;;;;;;4940759;28;20797;-93
2022/06/27 01:19:25;;;;;;;1.60;1.50;;;16.90;99.90;;;;;;4942835;28;20179;-94
2022/06/27 01:21:55;;;;;;;2.13;1.50;;;17.10;99.90;;;;;;4942651;28;20529;-96
2022/06/27 01:24:25;;;;;;;2.70;1.50;;;16.60;99.90;;;;;;4947565;28;20178;-95
2022/06/27 01:26:53;;;;;;;1.60;1.50;;;17.60;99.90;;;;;;4952496;28;20488;-96
2022/06/27 01:29:19;;;;;;;1.50;1.40;;;17.00;99.90;;;;;;4957619;28;20541;-95
2022/06/27 01:31:48;;;;;;;1.20;1.10;;;16.80;99.90;;;;;;4943173;28;20467;-96
2022/06/27 01:34:13;;;;;;;1.07;1.07;;;17.00;99.90;;;;;;4979744;28;20442;-96
2022/06/27 01:36:42;;;;;;;1.90;1.30;;;17.50;99.90;;;;;;4983841;28;20504;-96
2022/06/27 01:39:16;;;;;;;2.23;1.30;;;18.10;99.90;;;;;;4955030;28;20504;-96
2022/06/27 01:41:48;;;;;;;2.87;1.23;;;17.10;99.90;;;;;;4978784;28;20462;-96
2022/06/27 01:44:16;;;;;;;2.60;1.30;;;16.80;99.90;;;;;;4981034;28;20468;-96
2022/06/27 01:46:50;;;;;;;2.00;1.37;;;17.60;99.90;;;;;;4952962;28;20483;-95
2022/06/27 01:49:22;;;;;;;1.13;1.03;;;18.00;99.90;;;;;;4953167;28;21237;-96
2022/06/27 01:51:50;;;;;;;2.53;1.30;;;16.80;99.90;;;;;;4942687;28;20461;-95
2022/06/27 01:54:18;;;;;;;2.40;1.00;;;16.80;99.90;;;;;;4936158;28;20679;-95
2022/06/27 01:56:44;;;;;;;2.10;0.90;;;16.70;99.90;;;;;;4936266;28;20454;-95
2022/06/27 01:59:14;;;;;;;0.93;0.93;;;16.60;99.90;;;;;;4941773;28;20454;-95
2022/06/27 02:01:41;;;;;;;1.60;1.37;;;17.30;99.90;;;;;;4944809;28;20442;-96
2022/06/27 02:04:26;;;;;;;1.27;1.17;;;17.00;99.90;;;;;;4946670;28;20443;-96
2022/06/27 02:06:52;;;;;;;1.50;1.40;;;17.10;99.90;;;;;;4943312;28;20448;-96
2022/06/27 02:09:21;;;;;;;2.30;1.33;;;17.40;99.90;;;;;;4939211;28;20464;-96
2022/06/27 02:11:49;;;;;;;2.07;1.50;;;17.10;99.90;;;;;;4959508;28;20437;-96
2022/06/27 02:14:15;;;;;;;1.30;1.20;;;17.20;99.90;;;;;;4942980;28;20461;-94
2022/06/27 02:16:42;;;;;;;2.33;1.00;;;16.80;99.90;;;;;;4939468;28;20447;-95
2022/06/27 02:19:13;;;;;;;1.20;1.10;;;16.90;99.90;;;;;;4942394;28;20463;-96
2022/06/27 02:21:40;;;;;;;0.90;0.90;;;17.10;99.90;;;;;;4944092;28;20457;-96
2022/06/27 02:24:09;;;;;;;1.90;1.10;;;17.10;99.90;;;;;;4942773;28;20448;-96
2022/06/27 02:26:35;;;;;;;1.50;0.87;;;17.00;99.90;;;;;;4938923;28;20441;-96
2022/06/27 02:29:01;;;;;;;1.80;1.00;;;17.30;99.90;;;;;;4945568;28;20983;-96
2022/06/27 02:31:27;;;;;;;1.60;1.13;;;17.30;99.90;;;;;;4943636;28;20450;-96
2022/06/27 02:33:54;;;;;;;1.63;1.07;;;18.10;99.90;;;;;;4944296;28;20496;-96
2022/06/27 02:36:28;;;;;;;3.00;1.30;;;18.00;99.90;;;;;;4965410;28;20463;-96
2022/06/27 02:38:55;;;;;;;1.73;1.23;;;18.10;99.90;;;;;;4950483;28;20474;-96
2022/06/27 02:41:21;;;;;;;2.07;1.20;;;18.50;99.90;;;;;;4950734;28;20433;-95
2022/06/27 02:43:49;;;;;;;1.50;0.90;;;16.70;99.90;;;;;;4947288;28;20426;-96
2022/06/27 02:46:15;;;;;;;1.47;1.37;;;17.10;99.90;;;;;;4961767;28;20442;-96
2022/06/27 02:48:41;;;;;;;1.80;1.13;;;17.10;99.90;;;;;;4944472;28;20805;-96
2022/06/27 02:51:14;;;;;;;1.67;1.57;;;17.20;99.90;;;;;;4946454;28;20494;-96
2022/06/27 02:54:01;;;;;;;2.50;1.40;;;17.50;99.90;;;;;;4939462;28;20445;-95
2022/06/27 02:56:51;;;;;;;2.10;1.30;;;17.10;99.90;;;;;;4940383;28;20445;-95
2022/06/27 02:59:24;;;;;;;1.40;1.30;;;17.00;99.90;;;;;;4940098;28;20450;-96
2022/06/27 03:01:55;;;;;;;4.97;1.53;;;17.00;99.90;;;;;;4951182;28;20502;-96
2022/06/27 03:04:22;;;;;;;2.40;1.27;;;17.10;99.90;;;;;;4933841;28;20546;-96
2022/06/27 03:06:49;;;;;;;1.87;1.60;;;16.80;99.90;;;;;;4964547;28;20449;-96
2022/06/27 03:09:16;;;;;;;2.77;1.60;;;16.90;99.90;;;;;;4956737;28;20206;-96
2022/06/27 03:11:42;;;;;;;1.90;1.70;;;16.80;99.90;;;;;;4954863;28;21376;-96
2022/06/27 03:14:07;;;;;;;1.40;1.30;;;17.10;99.90;;;;;;4964912;28;20449;-96
2022/06/27 03:17:11;;;;;;;1.77;1.67;;;16.90;99.90;;;;;;5091449;23;20494;-96
2022/06/27 03:19:36;;;;;;;1.80;1.70;;;17.10;99.90;;;;;;4963826;28;20558;-96
2022/06/27 03:22:02;;;;;;;2.23;2.03;;;18.20;99.90;;;;;;4953684;28;20534;-96
2022/06/27 03:24:27;;;;;;;2.53;2.33;;;17.00;99.90;;;;;;4959097;28;20258;-96
2022/06/27 03:26:53;;;;;;;3.67;2.40;;;17.00;99.90;;;;;;4973521;28;20227;-96
2022/06/27 03:29:19;;;;;;;3.10;2.80;;;17.70;99.90;;;;;;4969488;28;20218;-96
2022/06/27 03:31:47;;;;;;;2.23;2.13;;;16.90;99.90;;;;;;4972563;28;20217;-96
2022/06/27 03:34:12;;;;;;;2.60;2.40;;;16.80;99.90;;;;;;4971481;28;20457;-96
2022/06/27 03:36:38;;;;;;;2.17;2.07;;;16.90;99.90;;;;;;4965338;28;20206;-96
2022/06/27 03:39:04;;;;;;;2.20;2.00;;;17.00;99.90;;;;;;4963320;28;20222;-95
2022/06/27 03:41:30;;;;;;;2.60;1.80;;;16.90;99.90;;;;;;4952827;28;20458;-94
2022/06/27 03:44:00;;;;;;;2.80;2.37;;;17.00;99.90;;;;;;4941175;28;20186;-96
2022/06/27 03:46:26;;;;;;;3.07;2.30;;;17.00;99.90;;;;;;4950796;28;20506;-95
2022/06/27 03:51:35;;;;;;;2.60;2.37;;;16.90;99.90;;;;;;4954343;28;20214;-96
2022/06/27 03:54:01;;;;;;;1.97;1.83;;;17.00;99.90;;;;;;4955232;28;20431;-96
2022/06/27 03:56:26;;;;;;;2.23;2.13;;;16.90;99.90;;;;;;4962898;28;20223;-96
2022/06/27 03:58:52;;;;;;;2.57;1.97;;;17.10;99.90;;;;;;4961374;28;20167;-96
2022/06/27 04:01:18;;;;;;;2.97;2.20;;;17.60;99.90;;;;;;4958118;28;20236;-96
2022/06/27 04:03:44;;;;;;;3.37;2.30;;;16.90;99.90;;;;;;4955862;28;20213;-96
2022/06/27 04:06:09;;;;;;;2.40;2.20;;;17.00;99.90;;;;;;4938989;28;20186;-95
2022/06/27 04:08:37;;;;;;;2.83;2.27;;;17.10;99.90;;;;;;4962527;28;20689;-96
2022/06/27 04:11:11;;;;;;;4.20;2.40;;;17.50;99.90;;;;;;4957919;28;20202;-96
2022/06/27 04:13:54;;;;;;;2.60;2.40;;;17.20;99.90;;;;;;4968608;28;20454;-96
2022/06/27 04:16:32;;;;;;;2.80;2.50;;;17.50;99.90;;;;;;4977310;28;20471;-96
2022/06/27 04:19:00;;;;;;;2.57;2.17;;;17.60;99.90;;;;;;4974336;28;20187;-95
2022/06/27 04:21:25;;;;;;;4.60;2.40;;;18.70;99.90;;;;;;4952110;28;20660;-95
2022/06/27 04:23:51;;;;;;;3.83;2.70;;;18.10;99.90;;;;;;4940011;28;20449;-95
2022/06/27 04:26:17;;;;;;;4.03;2.50;;;17.80;99.90;;;;;;4945830;28;20577;-95
2022/06/27 04:28:45;;;;;;;7.13;2.30;;;17.20;99.90;;;;;;4947080;28;20253;-96
2022/06/27 04:31:16;;;;;;;2.63;2.03;;;17.90;99.90;;;;;;4955269;28;20213;-96
2022/06/27 04:33:44;;;;;;;2.43;2.30;;;17.70;99.90;;;;;;4948848;28;20958;-95
2022/06/27 04:36:12;;;;;;;1.93;1.73;;;18.80;99.90;;;;;;4950369;28;20194;-96
2022/06/27 04:38:41;;;;;;;2.50;2.20;;;17.80;99.90;;;;;;4978499;28;20450;-96
2022/06/27 05:14:46;;;;;;;3.40;2.00;;;17.90;99.90;;;;;;4954626;28;20804;-92
2022/06/27 05:17:13;;;;;;;3.93;2.20;;;18.10;99.90;;;;;;4960365;28;20445;-92
2022/06/27 05:19:39;;;;;;;3.00;1.97;;;17.90;99.90;;;;;;4938771;28;20454;-92
2022/06/27 05:22:08;;;;;;;2.20;2.00;;;18.10;99.90;;;;;;4947648;28;20456;-92
2022/06/27 05:24:35;;;;;;;3.10;2.00;;;18.20;99.90;;;;;;4945663;28;21078;-92
2022/06/27 05:27:01;;;;;;;1.97;1.83;;;18.20;99.90;;;;;;4944435;28;20480;-91
2022/06/27 05:29:28;;;;;;;3.50;2.13;;;18.40;99.90;;;;;;4944286;28;21495;-93
2022/06/27 05:31:54;;;;;;;2.47;2.13;;;18.80;99.90;;;;;;4949189;28;20338;-92
2022/06/27 05:34:22;;;;;;;2.43;1.90;;;18.80;99.90;;;;;;4946884;28;20450;-93
2022/06/27 05:36:48;;;;;;;2.20;2.07;;;18.30;99.90;;;;;;4947772;28;20449;-92
2022/06/27 05:39:14;;;;;;;2.07;1.87;;;18.40;99.90;;;;;;4944825;28;20208;-93
2022/06/27 05:41:41;;;;;;;2.83;1.90;;;19.00;99.90;;;;;;4948593;28;20241;-92
2022/06/27 05:44:09;;;;;;;1.70;1.60;;;18.60;99.90;;;;;;4944934;28;20438;-92
2022/06/27 05:46:37;;;;;;;3.00;1.83;;;18.50;99.90;;;;;;4944931;28;20431;-92
2022/06/27 05:49:06;;;;;;;2.43;1.80;;;18.50;99.90;;;;;;4940544;28;20923;-91
2022/06/27 05:52:08;;;;;;;2.10;1.90;;;18.50;99.90;;;;;;4941834;28;20879;-93
2022/06/27 05:54:35;;;;;;;2.30;2.20;;;18.70;99.90;;;;;;4938162;28;20453;-93
2022/06/27 05:57:04;;;;;;;2.30;2.13;;;18.90;99.90;;;;;;4941876;28;20459;-93
2022/06/27 05:59:30;;;;;;;3.83;2.63;;;18.60;99.90;;;;;;4944597;28;20441;-93
2022/06/27 06:01:56;;;;;;;2.23;2.03;;;19.20;99.90;;;;;;4943515;28;20460;-92
2022/06/27 06:04:22;;;;;;;3.07;1.93;;;18.70;99.90;;;;;;4942784;28;20196;-94
2022/06/27 06:06:48;;;;;;;2.30;2.17;;;18.40;99.90;;;;;;4958081;28;20437;-95
2022/06/27 06:09:35;;;;;;;1.97;1.77;;;18.70;99.90;;;;;;4948223;28;20229;-96
2022/06/27 06:12:00;;;;;;;2.60;1.70;;;18.50;99.90;;;;;;4956718;28;20182;-94
2022/06/27 06:14:32;;;;;;;1.50;1.40;;;19.20;99.90;;;;;;4946475;28;22456;-96
2022/06/27 06:17:12;;;;;;;1.40;1.30;;;18.70;99.90;;;;;;4939330;28;20877;-94
2022/06/27 06:19:39;;;;;;;2.13;1.63;;;19.30;99.90;;;;;;4939745;28;20441;-96
2022/06/27 06:22:05;;;;;;;1.40;1.30;;;18.50;99.90;;;;;;4941317;28;20493;-93
2022/06/27 06:24:31;;;;;;;1.60;1.50;;;20.00;99.90;;;;;;4950452;28;20437;-92
2022/06/27 06:27:03;;;;;;;1.60;1.50;;;18.40;99.90;;;;;;4939173;28;20527;-94
2022/06/27 06:29:29;;;;;;;1.80;1.57;;;19.30;99.90;;;;;;4946103;28;20864;-94
2022/06/27 06:31:54;;;;;;;2.50;2.10;;;19.90;99.90;;;;;;4945535;28;20539;-93
2022/06/27 06:34:20;;;;;;;2.30;2.10;;;19.10;99.90;;;;;;4957618;28;20438;-94
2022/06/27 06:36:46;;;;;;;2.37;1.70;;;19.30;99.90;;;;;;4964061;28;20193;-96
2022/06/27 06:40:10;;;;;;;2.30;1.90;;;20.00;99.90;;;;;;4963236;28;20194;-95
2022/06/27 06:42:41;;;;;;;2.83;2.03;;;19.70;99.90;;;;;;4946174;28;21136;-95
2022/06/27 06:45:16;;;;;;;4.17;1.93;;;19.30;99.90;;;;;;4938264;28;20445;-92
2022/06/27 06:47:44;;;;;;;2.43;1.80;;;19.70;99.90;;;;;;4960469;28;20783;-92
2022/06/27 06:50:18;;;;;;;2.20;2.10;;;20.10;99.90;;;;;;4960171;28;20505;-93
2022/06/27 06:52:53;;;;;;;2.93;2.00;;;19.60;99.90;;;;;;4940600;28;20477;-91
2022/06/27 06:55:29;;;;;;;1.90;1.80;;;20.00;99.90;;;;;;4958639;28;20464;-92
2022/06/27 06:57:55;;;;;;;1.53;1.43;;;20.10;99.90;;;;;;4942182;28;20511;-93
2022/06/27 07:00:21;;;;;;;4.40;2.20;;;20.20;99.90;;;;;;4944220;28;20442;-93
2022/06/27 07:02:48;;;;;;;3.90;2.20;;;19.90;99.90;;;;;;4943670;28;20186;-93
2022/06/27 07:05:14;;;;;;;3.63;1.60;;;20.30;99.90;;;;;;4939576;28;20202;-92
2022/06/27 07:07:43;;;;;;;1.53;1.43;;;20.60;99.90;;;;;;4932243;28;20446;-93
2022/06/27 07:10:13;;;;;;;2.20;1.60;;;20.60;99.90;;;;;;4935947;28;21002;-96
2022/06/27 07:12:42;;;;;;;1.77;1.67;;;20.50;99.90;;;;;;4927898;28;20461;-94
2022/06/27 07:15:09;;;;;;;2.10;1.30;;;20.40;99.90;;;;;;4940752;28;21036;-95
2022/06/27 07:17:46;;;;;;;1.80;1.70;;;20.30;99.90;;;;;;4942601;28;20442;-94
2022/06/27 07:20:13;;;;;;;1.40;1.30;;;20.30;99.90;;;;;;4953014;28;20425;-95
2022/06/27 07:22:41;;;;;;;1.80;1.67;;;20.30;99.90;;;;;;4946486;28;20442;-93
2022/06/27 07:25:08;;;;;;;1.90;1.80;;;20.40;99.90;;;;;;4948570;28;20434;-93
2022/06/27 07:27:36;;;;;;;1.60;1.50;;;20.40;99.90;;;;;;4949887;28;20500;-95
2022/06/27 07:30:03;;;;;;;1.50;1.30;;;20.40;99.90;;;;;;4947639;28;20484;-94
2022/06/27 07:32:31;;;;;;;1.70;1.60;;;20.70;99.90;;;;;;4944607;28;20442;-94
2022/06/27 07:35:09;;;;;;;1.20;1.20;;;20.80;99.90;;;;;;4949206;28;20501;-95
2022/06/27 07:37:45;;;;;;;1.23;1.13;;;21.40;99.90;;;;;;4950256;28;20465;-95
2022/06/27 07:40:16;;;;;;;1.47;1.20;;;21.80;99.90;;;;;;4947164;28;20479;-95
2022/06/27 07:42:45;;;;;;;2.50;1.40;;;21.90;99.90;;;;;;4947836;28;20540;-96
2022/06/27 07:45:23;;;;;;;1.07;1.07;;;22.00;99.90;;;;;;4963213;28;20529;-94
2022/06/27 07:47:54;;;;;;;1.53;1.40;;;21.90;99.90;;;;;;4942411;28;20497;-94
2022/06/27 07:50:39;;;;;;;2.00;1.50;;;22.40;99.90;;;;;;4946581;28;20504;-94
2022/06/27 07:53:20;;;;;;;1.90;1.50;;;22.60;99.90;;;;;;4945035;28;20529;-95
2022/06/27 07:56:06;;;;;;;1.67;1.30;;;22.80;99.90;;;;;;4964351;28;20425;-95
2022/06/27 07:58:33;;;;;;;2.10;1.33;;;23.10;99.90;;;;;;4968502;28;20504;-93
2022/06/27 08:01:02;;;;;;;3.30;1.30;;;22.60;99.90;;;;;;4967930;28;20455;-94
2022/06/27 08:03:41;;;;;;;2.67;1.43;;;22.80;99.90;;;;;;4966703;28;20542;-95
2022/06/27 08:06:26;;;;;;;1.67;1.50;;;23.20;99.90;;;;;;4968691;28;20433;-94
2022/06/27 08:09:01;;;;;;;1.70;1.60;;;22.40;99.90;;;;;;4961052;28;20442;-94
2022/06/27 08:11:33;;;;;;;1.80;1.33;;;22.40;99.90;;;;;;4950491;28;20517;-94
2022/06/27 08:14:03;;;;;;;1.50;1.40;;;22.60;99.90;;;;;;4944717;28;20444;-94
2022/06/27 08:16:30;;;;;;;3.43;2.00;;;23.00;99.90;;;;;;4939759;28;20446;-94
2022/06/27 08:18:56;;;;;;;1.30;1.20;;;23.20;99.90;;;;;;4939145;28;20441;-93
2022/06/27 08:21:25;;;;;;;1.87;1.27;;;23.40;99.90;;;;;;4925252;28;20465;-93
2022/06/27 08:23:53;;;;;;;1.80;1.70;;;22.40;99.90;;;;;;4939850;28;20465;-94
2022/06/27 08:26:21;;;;;;;2.80;1.50;;;23.30;99.90;;;;;;4945501;28;20812;-95
2022/06/27 08:28:48;;;;;;;1.87;1.17;;;23.20;99.90;;;;;;4960513;28;20456;-94
2022/06/27 08:31:15;;;;;;;1.40;1.30;;;22.40;99.90;;;;;;4947425;28;20477;-94
2022/06/27 08:33:46;;;;;;;1.17;1.10;;;22.70;99.90;;;;;;4938133;28;20259;-94
2022/06/27 08:36:30;;;;;;;1.53;1.30;;;22.60;99.90;;;;;;4956767;28;21716;-93
2022/06/27 08:39:07;;;;;;;2.43;1.03;;;23.50;99.90;;;;;;4943140;28;20442;-92
2022/06/27 08:41:34;;;;;;;1.43;1.33;;;22.50;99.90;;;;;;4945552;28;20449;-93
2022/06/27 08:44:04;;;;;;;3.40;1.40;;;22.50;99.90;;;;;;4939542;28;20476;-94
2022/06/27 08:46:30;;;;;;;1.80;1.67;;;23.00;99.90;;;;;;4944387;28;20509;-94
2022/06/27 08:48:57;;;;;;;1.70;1.60;;;21.90;99.90;;;;;;4950346;28;20457;-95
2022/06/27 08:51:23;;;;;;;1.40;1.30;;;22.20;99.90;;;;;;4950463;28;20939;-95
2022/06/27 08:53:51;;;;;;;2.00;1.50;;;22.40;99.90;;;;;;4938739;28;20469;-94
2022/06/27 08:56:17;;;;;;;1.60;1.50;;;22.80;99.90;;;;;;4960748;28;20516;-94
2022/06/27 08:58:51;;;;;;;1.87;1.77;;;22.60;99.90;;;;;;4947569;28;20528;-93
2022/06/27 09:01:21;;;;;;;2.53;1.33;;;23.00;99.90;;;;;;4929930;28;20445;-92
2022/06/27 09:03:58;;;;;;;2.03;1.27;;;23.10;99.90;;;;;;4940047;28;20460;-93
2022/06/27 09:06:26;;;;;;;1.93;1.40;;;23.40;99.90;;;;;;4946297;28;20445;-93
2022/06/27 09:09:09;;;;;;;1.07;1.07;;;22.70;99.90;;;;;;4943100;28;20793;-96
2022/06/27 09:11:41;;;;;;;2.20;1.40;;;22.30;99.90;;;;;;4943670;28;20463;-93
2022/06/27 09:14:36;;;;;;;1.60;1.50;;;23.00;99.90;;;;;;4944095;28;20965;-92
2022/06/27 09:17:06;;;;;;;4.20;1.40;;;22.50;99.90;;;;;;4941530;28;20446;-92
2022/06/27 09:19:52;;;;;;;2.97;1.37;;;22.30;99.90;;;;;;4922496;28;20500;-92
2022/06/27 09:22:32;;;;;;;2.47;1.47;;;22.80;99.90;;;;;;4943638;28;20456;-96
2022/06/27 09:25:00;;;;;;;1.63;1.30;;;23.00;99.90;;;;;;4940953;28;20441;-96
2022/06/27 09:27:40;;;;;;;1.73;1.63;;;24.80;99.90;;;;;;4966864;28;20472;-95
2022/06/27 09:30:18;;;;;;;1.90;1.30;;;23.80;99.90;;;;;;4949845;28;20481;-95
2022/06/27 09:32:44;;;;;;;1.73;1.43;;;24.30;99.90;;;;;;4947673;28;20442;-96
2022/06/27 09:35:23;;;;;;;1.33;1.23;;;24.70;99.90;;;;;;4951234;28;20450;-96
2022/06/27 09:43:05;;;;;;;1.40;1.30;;;25.00;99.90;;;;;;4962652;28;20477;-96
2022/06/27 09:45:31;;;;;;;1.63;1.53;;;25.10;99.90;;;;;;4971728;28;20459;-95
2022/06/27 09:48:05;;;;;;;1.80;1.30;;;25.10;99.90;;;;;;4964146;28;20485;-95
2022/06/27 09:50:33;;;;;;;1.53;1.43;;;24.90;99.90;;;;;;4965542;28;20496;-94
2022/06/27 09:55:32;;;;;;;1.00;1.00;;;24.60;99.90;;;;;;4971374;28;20473;-96
2022/06/27 09:57:59;;;;;;;1.50;1.40;;;24.70;99.90;;;;;;4974421;28;20454;-95
2022/06/27 10:00:27;;;;;;;2.33;1.07;;;24.50;99.90;;;;;;4976556;28;20426;-96
2022/06/27 10:02:57;;;;;;;1.30;1.20;;;23.90;99.90;;;;;;4956305;28;20446;-93
2022/06/27 10:05:23;;;;;;;1.20;1.20;;;24.40;99.90;;;;;;4944484;28;20430;-95
2022/06/27 10:08:01;;;;;;;1.10;1.10;;;24.20;99.90;;;;;;4975942;28;20537;-95
2022/06/27 10:10:46;;;;;;;2.60;1.70;;;24.60;99.90;;;;;;4966362;28;20622;-95
2022/06/27 10:13:12;;;;;;;1.70;1.60;;;24.10;99.90;;;;;;4972286;28;20445;-96
2022/06/27 10:15:45;;;;;;;2.33;1.47;;;25.10;99.90;;;;;;4964324;28;20475;-96
2022/06/27 10:18:11;;;;;;;1.10;1.10;;;24.30;99.90;;;;;;4971229;28;20277;-95
2022/06/27 10:20:40;;;;;;;1.80;1.70;;;24.50;99.90;;;;;;4950753;28;20455;-92
2022/06/27 10:23:37;;;;;;;1.40;1.30;;;24.00;99.90;;;;;;4963416;23;20298;-96
2022/06/27 10:26:03;;;;;;;1.63;1.60;;;24.00;99.90;;;;;;4960136;28;20678;-96
2022/06/27 10:28:29;;;;;;;1.90;1.80;;;24.30;99.90;;;;;;4936569;28;20462;-95
2022/06/27 10:31:01;;;;;;;2.10;1.90;;;23.30;99.90;;;;;;4950171;28;20229;-96
2022/06/27 10:33:29;;;;;;;2.03;1.77;;;22.60;99.90;;;;;;4965357;28;20190;-95
2022/06/27 10:38:24;;;;;;;1.77;1.63;;;22.40;99.90;;;;;;4958500;28;20540;-96
2022/06/27 10:40:50;;;;;;;1.97;1.87;;;22.00;99.90;;;;;;4952341;28;20300;-93
2022/06/27 10:43:42;;;;;;;3.63;1.80;;;22.30;99.90;;;;;;4940287;28;20586;-93
2022/06/27 10:46:10;;;;;;;1.67;1.57;;;22.40;99.90;;;;;;4941405;28;20842;-96
2022/06/27 10:48:45;;;;;;;2.00;1.90;;;22.50;99.90;;;;;;4927820;28;20518;-93
2022/06/27 10:51:40;;;;;;;2.80;1.80;;;22.50;99.90;;;;;;4930123;28;20486;-95
2022/06/27 10:54:05;;;;;;;1.80;1.70;;;21.90;99.90;;;;;;4940087;28;20538;-91
2022/06/27 10:56:34;;;;;;;3.80;1.97;;;22.00;99.90;;;;;;4940273;28;20503;-94
2022/06/27 10:59:08;;;;;;;1.70;1.60;;;21.20;99.90;;;;;;4935767;28;20175;-95
2022/06/27 11:02:05;;;;;;;1.97;1.43;;;21.10;99.90;;;;;;4951750;28;20473;-90
2022/06/27 11:10:17;;;;;;;3.37;1.50;;;21.40;99.90;;;;;;4970928;28;21040;-96
2022/06/27 11:12:44;;;;;;;1.70;1.60;;;21.70;99.90;;;;;;4946513;28;20434;-91
2022/06/27 11:15:16;;;;;;;1.93;1.83;;;21.10;99.90;;;;;;4939562;28;20445;-93
2022/06/27 11:17:45;;;;;;;2.57;2.37;;;21.40;99.90;;;;;;4950007;28;20436;-94
2022/06/27 11:20:26;;;;;;;2.67;2.47;;;21.60;99.90;;;;;;4961002;28;20458;-94
2022/06/27 14:58:57;;;;;;;2.80;2.70;;;21.10;99.90;;;;;;4896723;23;20488;-94
2022/06/27 15:03:53;;;;;;;3.50;3.17;;;21.20;99.90;;;;;;4919332;29;20870;-91
2022/06/27 15:06:19;;;;;;;3.30;3.10;;;21.10;99.90;;;;;;4922265;29;20447;-94
2022/06/27 15:08:45;;;;;;;2.73;2.63;;;21.20;99.90;;;;;;4918687;29;20209;-94
2022/06/27 15:13:56;;;;;;;4.47;2.90;;;21.10;99.90;;;;;;4922041;29;20482;-93
2022/06/27 15:16:22;;;;;;;3.30;3.10;;;21.20;99.90;;;;;;4920017;29;20658;-94
2022/06/27 15:18:48;;;;;;;2.90;2.80;;;21.60;99.90;;;;;;4921195;29;20910;-93
2022/06/27 15:21:14;;;;;;;2.73;2.63;;;21.70;99.90;;;;;;4923056;29;20466;-93
2022/06/27 15:23:40;;;;;;;2.70;2.50;;;22.20;99.90;;;;;;4919640;28;20447;-92
2022/06/27 15:26:06;;;;;;;2.23;2.13;;;22.30;99.90;;;;;;4921382;29;20187;-94
2022/06/27 15:28:31;;;;;;;2.40;2.30;;;22.80;99.90;;;;;;4921755;29;20844;-93
2022/06/27 15:30:57;;;;;;;2.23;2.10;;;22.50;99.90;;;;;;4917708;29;20227;-94
2022/06/27 15:33:23;;;;;;;2.47;2.37;;;22.30;99.90;;;;;;4918932;29;20184;-94
2022/06/27 15:35:48;;;;;;;2.50;2.40;;;22.50;99.90;;;;;;4920971;29;20279;-94
2022/06/27 15:38:14;;;;;;;2.30;2.20;;;21.70;99.90;;;;;;4918732;29;20582;-94
2022/06/27 15:40:40;;;;;;;2.60;2.50;;;21.40;99.90;;;;;;4921481;29;20964;-93
2022/06/27 15:43:05;;;;;;;2.93;2.67;;;21.20;99.90;;;;;;4925070;29;20205;-93
2022/06/27 15:45:32;;;;;;;2.60;2.27;;;21.10;99.90;;;;;;4920473;29;20419;-92
2022/06/27 15:48:01;;;;;;;3.30;3.10;;;21.00;99.90;;;;;;4915220;29;20278;-96
2022/06/27 15:50:27;;;;;;;3.43;2.27;;;20.80;99.90;;;;;;4921842;29;20479;-92
2022/06/27 15:52:53;;;;;;;2.20;2.10;;;20.80;99.90;;;;;;4916501;29;21056;-93
2022/06/27 15:55:19;;;;;;;2.70;2.50;;;20.80;99.90;;;;;;4919982;29;20447;-93
2022/06/27 15:57:46;;;;;;;2.53;2.40;;;20.80;99.90;;;;;;4921576;29;20283;-93
2022/06/27 16:00:18;;;;;;;2.37;2.17;;;20.70;99.90;;;;;;4921130;29;20230;-94
2022/06/27 16:02:53;;;;;;;2.30;2.20;;;20.70;99.90;;;;;;4921344;28;20487;-96
2022/06/27 16:05:20;;;;;;;2.80;2.60;;;20.70;99.90;;;;;;4920016;29;20451;-95
2022/06/27 16:07:46;;;;;;;3.10;2.80;;;20.70;99.90;;;;;;5166211;23;20494;-95
2022/06/27 16:10:13;;;;;;;2.60;2.50;;;20.70;99.90;;;;;;5185957;23;20468;-94
2022/06/27 16:12:38;;;;;;;2.60;2.50;;;21.60;99.90;;;;;;4927413;28;20935;-94
2022/06/27 16:15:04;;;;;;;2.80;2.60;;;20.90;99.90;;;;;;4923377;29;20808;-93
2022/06/27 16:17:30;;;;;;;2.77;2.67;;;20.70;99.90;;;;;;4926745;29;20333;-93
2022/06/27 16:19:56;;;;;;;3.07;2.87;;;20.60;99.90;;;;;;4929037;29;20525;-94
2022/06/27 16:22:28;;;;;;;2.70;2.50;;;20.60;99.90;;;;;;4933475;29;20648;-92
2022/06/27 16:24:54;;;;;;;2.60;2.40;;;20.60;99.90;;;;;;4930826;29;20646;-93
2022/06/27 16:27:19;;;;;;;2.73;2.57;;;20.50;99.90;;;;;;4924434;29;20472;-91
2022/06/27 16:29:45;;;;;;;3.37;3.07;;;20.30;99.90;;;;;;4917260;29;20286;-93
2022/06/27 16:32:10;;;;;;;3.57;3.27;;;20.20;99.90;;;;;;4926626;29;20191;-94
2022/06/27 16:34:36;;;;;;;3.60;3.40;;;20.20;99.90;;;;;;4939483;29;20180;-93
2022/06/27 16:37:02;;;;;;;4.03;3.73;;;20.00;99.90;;;;;;4929091;28;20183;-94
2022/06/27 16:39:28;;;;;;;3.70;3.50;;;20.20;99.90;;;;;;4925427;29;20329;-92
2022/06/27 16:44:38;;;;;;;3.73;3.53;;;19.90;99.90;;;;;;4926955;29;20458;-93
2022/06/27 16:47:03;;;;;;;3.87;3.57;;;19.80;99.90;;;;;;4919107;29;20448;-93
2022/06/27 16:49:29;;;;;;;4.03;3.70;;;19.80;99.90;;;;;;4920814;29;20499;-92
2022/06/27 16:51:55;;;;;;;3.97;3.67;;;19.70;99.90;;;;;;4924206;29;21025;-93
2022/06/27 16:54:21;;;;;;;3.70;3.50;;;19.70;99.90;;;;;;4929693;29;20188;-93
2022/06/27 16:56:51;;;;;;;4.20;3.90;;;19.60;99.90;;;;;;4937939;29;20200;-93
2022/06/27 16:59:17;;;;;;;4.43;4.03;;;19.70;99.90;;;;;;4936484;29;20442;-93
2022/06/27 17:01:49;;;;;;;4.37;4.07;;;19.50;99.90;;;;;;4931516;29;20686;-93
2022/06/27 17:04:18;;;;;;;4.20;3.90;;;19.40;99.90;;;;;;4929192;28;20295;-95
2022/06/27 17:06:45;;;;;;;5.07;4.67;;;19.50;99.90;;;;;;4914627;29;20652;-94
2022/06/27 17:09:16;;;;;;;6.10;5.50;;;19.20;99.90;;;;;;4921717;29;20893;-92
2022/06/27 17:11:49;;;;;;;4.70;4.27;;;19.60;99.90;;;;;;4924897;28;20521;-96
2022/06/27 17:14:15;;;;;;;5.17;4.87;;;19.20;99.90;;;;;;4955231;28;20553;-93
2022/06/27 17:16:44;;;;;;;6.53;5.43;;;19.30;99.90;;;;;;4917321;28;20957;-92
2022/06/27 17:19:32;;;;;;;5.80;5.30;;;19.00;99.90;;;;;;4929926;28;20538;-94
2022/06/27 17:22:07;;;;;;;5.43;5.03;;;18.90;99.90;;;;;;4924911;29;20451;-94
2022/06/27 17:24:33;;;;;;;6.07;5.47;;;18.90;99.90;;;;;;4934544;28;20462;-93
2022/06/27 17:26:59;;;;;;;5.30;4.87;;;18.30;99.90;;;;;;4937171;29;20447;-92
2022/06/27 17:29:24;;;;;;;5.30;4.77;;;18.80;99.90;;;;;;4935660;28;20246;-91
2022/06/27 17:31:50;;;;;;;5.73;5.40;;;18.70;99.90;;;;;;4938526;28;20490;-94
2022/06/27 17:34:15;;;;;;;6.17;5.77;;;19.10;99.90;;;;;;4939365;29;20184;-93
2022/06/27 17:36:44;;;;;;;5.40;4.90;;;18.70;99.90;;;;;;4933074;28;20472;-91
2022/06/27 17:39:26;;;;;;;5.23;4.73;;;18.90;99.90;;;;;;4937659;28;20202;-92
2022/06/27 17:41:52;;;;;;;5.43;4.73;;;18.70;99.90;;;;;;4927854;29;20455;-93
2022/06/27 17:44:17;;;;;;;4.97;4.47;;;19.00;99.90;;;;;;4942062;29;20434;-91
2022/06/27 17:46:43;;;;;;;4.30;3.97;;;19.00;99.90;;;;;;4950863;28;20219;-93
2022/06/27 17:49:19;;;;;;;5.10;4.70;;;19.20;99.90;;;;;;4932486;29;20195;-89
2022/06/27 17:51:46;;;;;;;5.03;4.67;;;19.00;99.90;;;;;;4923319;29;20926;-91
2022/06/27 17:54:11;;;;;;;4.47;4.17;;;19.30;99.90;;;;;;4923328;29;20186;-93
2022/06/27 17:56:37;;;;;;;4.47;4.17;;;19.30;99.90;;;;;;4927361;29;20497;-93
2022/06/27 17:59:02;;;;;;;5.40;5.00;;;19.70;99.90;;;;;;4926569;29;20194;-92
2022/06/27 18:01:28;;;;;;;4.33;4.03;;;19.70;99.90;;;;;;4925216;29;20620;-93
2022/06/27 18:03:53;;;;;;;5.03;4.60;;;19.70;99.90;;;;;;4918747;29;21751;-93
2022/06/27 18:06:19;;;;;;;4.40;4.03;;;19.40;99.90;;;;;;4919780;29;20192;-93